sensor_id;sensor_type;location;lat;lon;timestamp;pressure;altitude;pressure_sealevel;temperature;humidity
78485;BME280;67773;50.806;8.776;2023-06-14T00:00:43;99429.59;;;15.74;50.26
78485;BME280;67773;50.806;8.776;2023-06-14T00:03:09;99437.38;;;15.77;49.38
78485;BME280;67773;50.806;8.776;2023-06-14T00:05:37;99438.34;;;15.76;50.25
78485;BME280;67773;50.806;8.776;2023-06-14T00:08:06;99441.47;;;15.70;49.97
78485;BME280;67773;50.806;8.776;2023-06-14T00:10:33;99432.72;;;15.68;50.49
78485;BME280;67773;50.806;8.776;2023-06-14T00:13:01;99444.50;;;15.66;50.10
78485;BME280;67773;50.806;8.776;2023-06-14T00:15:26;99442.25;;;15.59;50.54
78485;BME280;67773;50.806;8.776;2023-06-14T00:17:51;99454.03;;;15.57;51.18
78485;BME280;67773;50.806;8.776;2023-06-14T00:20:17;99458.00;;;15.51;49.65
78485;BME280;67773;50.806;8.776;2023-06-14T00:22:42;99461.22;;;15.56;50.29
78485;BME280;67773;50.806;8.776;2023-06-14T00:25:07;99457.28;;;15.49;49.93
78485;BME280;67773;50.806;8.776;2023-06-14T00:27:33;99461.53;;;15.52;50.13
78485;BME280;67773;50.806;8.776;2023-06-14T00:29:58;99459.94;;;15.49;51.33
78485;BME280;67773;50.806;8.776;2023-06-14T00:32:23;99462.47;;;15.40;50.10
78485;BME280;67773;50.806;8.776;2023-06-14T00:34:51;99452.56;;;15.29;50.25
78485;BME280;67773;50.806;8.776;2023-06-14T00:37:16;99458.63;;;15.31;51.16
78485;BME280;67773;50.806;8.776;2023-06-14T00:39:41;99467.06;;;15.38;50.76
78485;BME280;67773;50.806;8.776;2023-06-14T00:42:07;99459.28;;;15.35;50.89
78485;BME280;67773;50.806;8.776;2023-06-14T00:44:32;99459.28;;;15.35;50.90
78485;BME280;67773;50.806;8.776;2023-06-14T00:46:57;99457.16;;;15.27;50.74
78485;BME280;67773;50.806;8.776;2023-06-14T00:49:23;99462.34;;;15.17;50.89
78485;BME280;67773;50.806;8.776;2023-06-14T00:51:49;99459.16;;;15.12;50.24
78485;BME280;67773;50.806;8.776;2023-06-14T00:54:15;99466.44;;;14.97;52.07
78485;BME280;67773;50.806;8.776;2023-06-14T00:56:41;99462.19;;;14.95;51.63
78485;BME280;67773;50.806;8.776;2023-06-14T00:59:09;99460.38;;;14.95;51.59
78485;BME280;67773;50.806;8.776;2023-06-14T01:01:36;99464.56;;;14.87;52.42
78485;BME280;67773;50.806;8.776;2023-06-14T01:04:02;99464.25;;;14.91;52.09
78485;BME280;67773;50.806;8.776;2023-06-14T01:06:40;99477.28;;;14.83;51.23
78485;BME280;67773;50.806;8.776;2023-06-14T01:09:37;99466.81;;;14.93;51.82
78485;BME280;67773;50.806;8.776;2023-06-14T01:12:23;99465.44;;;14.75;52.07
78485;BME280;67773;50.806;8.776;2023-06-14T01:14:52;99471.56;;;14.64;52.75
78485;BME280;67773;50.806;8.776;2023-06-14T01:17:19;99470.06;;;14.60;52.07
78485;BME280;67773;50.806;8.776;2023-06-14T01:19:44;99472.19;;;14.55;52.75
78485;BME280;67773;50.806;8.776;2023-06-14T01:22:11;99472.81;;;14.58;52.21
78485;BME280;67773;50.806;8.776;2023-06-14T01:24:36;99472.31;;;14.53;52.65
78485;BME280;67773;50.806;8.776;2023-06-14T01:27:04;99475.31;;;14.49;52.95
78485;BME280;67773;50.806;8.776;2023-06-14T01:29:31;99471.44;;;14.40;52.74
78485;BME280;67773;50.806;8.776;2023-06-14T01:31:58;99474.41;;;14.35;53.61
78485;BME280;67773;50.806;8.776;2023-06-14T01:34:24;99463.50;;;14.26;54.21
78485;BME280;67773;50.806;8.776;2023-06-14T01:36:52;99470.47;;;14.28;53.78
78485;BME280;67773;50.806;8.776;2023-06-14T01:39:20;99476.13;;;14.24;54.00
78485;BME280;67773;50.806;8.776;2023-06-14T01:41:47;99462.88;;;14.22;53.77
78485;BME280;67773;50.806;8.776;2023-06-14T01:44:13;99467.59;;;14.19;53.63
78485;BME280;67773;50.806;8.776;2023-06-14T01:46:40;99464.91;;;14.19;53.68
78485;BME280;67773;50.806;8.776;2023-06-14T01:49:05;99466.19;;;14.13;55.17
78485;BME280;67773;50.806;8.776;2023-06-14T01:51:31;99471.41;;;14.14;53.90
78485;BME280;67773;50.806;8.776;2023-06-14T01:53:56;99471.19;;;14.05;54.61
78485;BME280;67773;50.806;8.776;2023-06-14T01:56:22;99466.19;;;14.00;54.86
78485;BME280;67773;50.806;8.776;2023-06-14T01:58:47;99468.84;;;14.00;54.80
78485;BME280;67773;50.806;8.776;2023-06-14T02:01:13;99462.00;;;13.96;54.92
78485;BME280;67773;50.806;8.776;2023-06-14T02:03:41;99466.06;;;13.89;54.96
78485;BME280;67773;50.806;8.776;2023-06-14T02:06:07;99466.28;;;13.86;55.70
78485;BME280;67773;50.806;8.776;2023-06-14T02:08:33;99465.50;;;13.84;55.38
78485;BME280;67773;50.806;8.776;2023-06-14T02:10:58;99467.53;;;13.80;55.79
78485;BME280;67773;50.806;8.776;2023-06-14T02:13:23;99459.19;;;13.72;55.87
78485;BME280;67773;50.806;8.776;2023-06-14T02:15:48;99470.91;;;13.70;56.40
78485;BME280;67773;50.806;8.776;2023-06-14T02:18:19;99471.63;;;13.59;56.50
78485;BME280;67773;50.806;8.776;2023-06-14T02:20:44;99467.88;;;13.49;57.15
78485;BME280;67773;50.806;8.776;2023-06-14T02:23:10;99475.28;;;13.44;57.60
78485;BME280;67773;50.806;8.776;2023-06-14T02:25:35;99477.47;;;13.51;56.72
78485;BME280;67773;50.806;8.776;2023-06-14T02:28:00;99482.94;;;13.63;57.51
78485;BME280;67773;50.806;8.776;2023-06-14T02:30:26;99480.81;;;13.55;57.25
78485;BME280;67773;50.806;8.776;2023-06-14T02:32:51;99477.94;;;13.58;57.86
78485;BME280;67773;50.806;8.776;2023-06-14T02:35:18;99478.13;;;13.55;57.44
78485;BME280;67773;50.806;8.776;2023-06-14T02:37:43;99485.47;;;13.51;57.12
78485;BME280;67773;50.806;8.776;2023-06-14T02:40:09;99481.31;;;13.47;57.42
78485;BME280;67773;50.806;8.776;2023-06-14T02:42:34;99483.41;;;13.42;58.22
78485;BME280;67773;50.806;8.776;2023-06-14T02:45:00;99487.44;;;13.35;57.64
78485;BME280;67773;50.806;8.776;2023-06-14T02:47:25;99480.69;;;13.29;57.38
78485;BME280;67773;50.806;8.776;2023-06-14T02:49:51;99486.34;;;13.25;57.91
78485;BME280;67773;50.806;8.776;2023-06-14T02:52:16;99486.50;;;13.22;57.45
78485;BME280;67773;50.806;8.776;2023-06-14T02:54:41;99487.63;;;13.32;57.79
78485;BME280;67773;50.806;8.776;2023-06-14T02:57:07;99494.13;;;13.28;57.52
78485;BME280;67773;50.806;8.776;2023-06-14T02:59:33;99493.75;;;13.20;57.17
78485;BME280;67773;50.806;8.776;2023-06-14T03:01:59;99494.78;;;13.17;58.97
78485;BME280;67773;50.806;8.776;2023-06-14T03:04:24;99492.41;;;13.13;58.15
78485;BME280;67773;50.806;8.776;2023-06-14T03:06:51;99493.66;;;13.07;59.56
78485;BME280;67773;50.806;8.776;2023-06-14T03:09:17;99499.00;;;13.07;58.99
78485;BME280;67773;50.806;8.776;2023-06-14T03:11:42;99502.88;;;13.16;59.23
78485;BME280;67773;50.806;8.776;2023-06-14T03:14:07;99509.00;;;13.04;59.52
78485;BME280;67773;50.806;8.776;2023-06-14T03:16:33;99503.56;;;13.05;58.74
78485;BME280;67773;50.806;8.776;2023-06-14T03:18:59;99510.13;;;12.99;59.58
78485;BME280;67773;50.806;8.776;2023-06-14T03:21:24;99511.72;;;13.02;58.75
78485;BME280;67773;50.806;8.776;2023-06-14T03:23:51;99512.41;;;13.06;58.65
78485;BME280;67773;50.806;8.776;2023-06-14T03:26:16;99524.31;;;13.00;58.89
78485;BME280;67773;50.806;8.776;2023-06-14T03:28:45;99513.53;;;13.01;58.24
78485;BME280;67773;50.806;8.776;2023-06-14T03:31:11;99526.88;;;13.01;59.16
78485;BME280;67773;50.806;8.776;2023-06-14T03:33:37;99533.94;;;13.03;58.59
78485;BME280;67773;50.806;8.776;2023-06-14T03:36:02;99532.97;;;13.04;59.39
78485;BME280;67773;50.806;8.776;2023-06-14T03:38:28;99522.66;;;13.12;57.97
78485;BME280;67773;50.806;8.776;2023-06-14T03:40:54;99531.44;;;13.14;59.01
78485;BME280;67773;50.806;8.776;2023-06-14T03:43:19;99539.50;;;13.12;59.68
78485;BME280;67773;50.806;8.776;2023-06-14T03:45:44;99537.34;;;13.19;59.86
78485;BME280;67773;50.806;8.776;2023-06-14T03:48:10;99545.03;;;13.09;59.54
78485;BME280;67773;50.806;8.776;2023-06-14T03:50:35;99549.94;;;13.03;59.68
78485;BME280;67773;50.806;8.776;2023-06-14T03:53:03;99549.34;;;12.97;60.88
78485;BME280;67773;50.806;8.776;2023-06-14T03:55:28;99555.72;;;12.95;61.24
78485;BME280;67773;50.806;8.776;2023-06-14T03:57:56;99561.06;;;12.95;60.02
78485;BME280;67773;50.806;8.776;2023-06-14T04:00:21;99562.47;;;13.00;59.49
78485;BME280;67773;50.806;8.776;2023-06-14T04:02:47;99565.78;;;12.90;60.35
78485;BME280;67773;50.806;8.776;2023-06-14T04:05:12;99564.09;;;12.89;60.58
78485;BME280;67773;50.806;8.776;2023-06-14T04:07:38;99565.69;;;12.91;60.84
78485;BME280;67773;50.806;8.776;2023-06-14T04:10:11;99567.81;;;12.86;60.78
78485;BME280;67773;50.806;8.776;2023-06-14T04:12:37;99573.13;;;12.86;61.16
78485;BME280;67773;50.806;8.776;2023-06-14T04:15:02;99582.72;;;12.89;60.66
78485;BME280;67773;50.806;8.776;2023-06-14T04:17:28;99577.50;;;12.87;60.27
78485;BME280;67773;50.806;8.776;2023-06-14T04:19:54;99584.34;;;12.91;61.12
78485;BME280;67773;50.806;8.776;2023-06-14T04:22:19;99583.97;;;12.97;60.33
78485;BME280;67773;50.806;8.776;2023-06-14T04:24:44;99583.03;;;12.98;61.07
78485;BME280;67773;50.806;8.776;2023-06-14T04:27:11;99585.69;;;12.98;61.23
78485;BME280;67773;50.806;8.776;2023-06-14T04:29:36;99588.09;;;13.03;61.79
78485;BME280;67773;50.806;8.776;2023-06-14T04:32:02;99588.53;;;13.10;61.35
78485;BME280;67773;50.806;8.776;2023-06-14T04:34:28;99594.44;;;13.15;60.93
78485;BME280;67773;50.806;8.776;2023-06-14T04:36:59;99600.53;;;13.17;61.03
78485;BME280;67773;50.806;8.776;2023-06-14T04:39:26;99592.81;;;13.12;60.90
78485;BME280;67773;50.806;8.776;2023-06-14T04:41:52;99603.41;;;13.14;61.36
78485;BME280;67773;50.806;8.776;2023-06-14T04:44:21;99598.81;;;13.16;61.56
78485;BME280;67773;50.806;8.776;2023-06-14T04:46:49;99607.41;;;13.21;60.99
78485;BME280;67773;50.806;8.776;2023-06-14T04:49:15;99602.56;;;13.27;61.24
78485;BME280;67773;50.806;8.776;2023-06-14T04:51:42;99608.16;;;13.37;62.15
78485;BME280;67773;50.806;8.776;2023-06-14T04:54:08;99606.72;;;13.32;61.27
78485;BME280;67773;50.806;8.776;2023-06-14T04:56:40;99606.44;;;13.36;61.25
78485;BME280;67773;50.806;8.776;2023-06-14T04:59:05;99600.72;;;13.42;61.38
78485;BME280;67773;50.806;8.776;2023-06-14T05:01:31;99597.66;;;13.48;60.43
78485;BME280;67773;50.806;8.776;2023-06-14T05:03:58;99605.66;;;13.48;61.88
78485;BME280;67773;50.806;8.776;2023-06-14T05:06:24;99594.41;;;13.57;60.06
78485;BME280;67773;50.806;8.776;2023-06-14T05:08:49;99596.13;;;13.58;60.43
78485;BME280;67773;50.806;8.776;2023-06-14T05:11:14;99604.78;;;13.62;60.36
78485;BME280;67773;50.806;8.776;2023-06-14T05:13:42;99601.81;;;13.67;62.20
78485;BME280;67773;50.806;8.776;2023-06-14T05:16:07;99602.53;;;13.83;62.29
78485;BME280;67773;50.806;8.776;2023-06-14T05:18:32;99600.81;;;13.82;60.13
78485;BME280;67773;50.806;8.776;2023-06-14T05:21:00;99597.81;;;14.13;58.51
78485;BME280;67773;50.806;8.776;2023-06-14T05:23:26;99598.78;;;14.12;60.14
78485;BME280;67773;50.806;8.776;2023-06-14T05:25:51;99596.88;;;14.14;61.09
78485;BME280;67773;50.806;8.776;2023-06-14T05:28:17;99596.69;;;14.18;59.96
78485;BME280;67773;50.806;8.776;2023-06-14T05:30:42;99593.47;;;14.25;60.86
78485;BME280;67773;50.806;8.776;2023-06-14T05:33:07;99597.78;;;14.40;57.90
78485;BME280;67773;50.806;8.776;2023-06-14T05:35:33;99599.66;;;14.53;57.47
78485;BME280;67773;50.806;8.776;2023-06-14T05:37:59;99590.34;;;14.58;59.62
78485;BME280;67773;50.806;8.776;2023-06-14T05:40:24;99605.22;;;14.62;59.94
78485;BME280;67773;50.806;8.776;2023-06-14T05:42:49;99595.41;;;14.76;60.09
78485;BME280;67773;50.806;8.776;2023-06-14T05:45:15;99603.75;;;14.84;61.30
78485;BME280;67773;50.806;8.776;2023-06-14T05:47:41;99604.47;;;14.98;60.05
78485;BME280;67773;50.806;8.776;2023-06-14T05:50:07;99593.16;;;14.95;57.01
78485;BME280;67773;50.806;8.776;2023-06-14T05:52:34;99604.50;;;15.11;57.30
78485;BME280;67773;50.806;8.776;2023-06-14T05:55:00;99610.13;;;15.19;58.50
78485;BME280;67773;50.806;8.776;2023-06-14T05:57:26;99612.38;;;15.25;59.61
78485;BME280;67773;50.806;8.776;2023-06-14T05:59:52;99616.53;;;15.29;57.44
78485;BME280;67773;50.806;8.776;2023-06-14T06:02:17;99607.97;;;15.37;56.71
78485;BME280;67773;50.806;8.776;2023-06-14T06:04:42;99610.53;;;15.39;56.02
78485;BME280;67773;50.806;8.776;2023-06-14T06:07:08;99608.91;;;15.49;55.52
78485;BME280;67773;50.806;8.776;2023-06-14T06:09:33;99604.31;;;15.64;54.78
78485;BME280;67773;50.806;8.776;2023-06-14T06:11:58;99599.59;;;15.67;54.13
78485;BME280;67773;50.806;8.776;2023-06-14T06:14:24;99605.97;;;15.77;54.87
78485;BME280;67773;50.806;8.776;2023-06-14T06:16:49;99613.66;;;15.82;56.33
78485;BME280;67773;50.806;8.776;2023-06-14T06:19:15;99615.66;;;15.91;56.23
78485;BME280;67773;50.806;8.776;2023-06-14T06:21:40;99615.34;;;16.31;51.60
78485;BME280;67773;50.806;8.776;2023-06-14T06:24:06;99615.63;;;16.15;53.24
78485;BME280;67773;50.806;8.776;2023-06-14T06:26:32;99621.22;;;16.12;51.48
78485;BME280;67773;50.806;8.776;2023-06-14T06:28:58;99616.72;;;16.12;53.14
78485;BME280;67773;50.806;8.776;2023-06-14T06:31:24;99623.78;;;16.13;55.51
78485;BME280;67773;50.806;8.776;2023-06-14T06:33:49;99624.44;;;16.17;52.71
78485;BME280;67773;50.806;8.776;2023-06-14T06:36:15;99632.22;;;16.20;52.76
78485;BME280;67773;50.806;8.776;2023-06-14T06:38:41;99628.94;;;16.16;51.96
78485;BME280;67773;50.806;8.776;2023-06-14T06:41:06;99628.94;;;16.16;52.97
78485;BME280;67773;50.806;8.776;2023-06-14T06:43:31;99621.84;;;16.39;52.43
78485;BME280;67773;50.806;8.776;2023-06-14T06:45:56;99619.63;;;16.33;52.08
78485;BME280;67773;50.806;8.776;2023-06-14T06:48:22;99622.69;;;16.40;51.48
78485;BME280;67773;50.806;8.776;2023-06-14T06:50:47;99638.41;;;16.44;51.06
78485;BME280;67773;50.806;8.776;2023-06-14T06:53:12;99635.00;;;16.42;50.44
78485;BME280;67773;50.806;8.776;2023-06-14T06:55:38;99637.56;;;16.44;51.73
78485;BME280;67773;50.806;8.776;2023-06-14T06:58:03;99640.69;;;16.62;51.89
78485;BME280;67773;50.806;8.776;2023-06-14T07:00:30;99641.84;;;16.47;50.30
78485;BME280;67773;50.806;8.776;2023-06-14T07:02:55;99642.72;;;16.47;52.38
78485;BME280;67773;50.806;8.776;2023-06-14T07:05:22;99654.53;;;16.80;52.58
78485;BME280;67773;50.806;8.776;2023-06-14T07:07:47;99657.44;;;16.77;50.61
78485;BME280;67773;50.806;8.776;2023-06-14T07:10:12;99667.09;;;16.79;49.85
78485;BME280;67773;50.806;8.776;2023-06-14T07:12:38;99658.22;;;16.90;50.40
78485;BME280;67773;50.806;8.776;2023-06-14T07:15:06;99669.31;;;17.08;47.77
78485;BME280;67773;50.806;8.776;2023-06-14T07:17:32;99657.50;;;16.99;48.66
78485;BME280;67773;50.806;8.776;2023-06-14T07:19:57;99660.44;;;17.29;48.43
78485;BME280;67773;50.806;8.776;2023-06-14T07:22:23;99662.03;;;17.21;48.77
78485;BME280;67773;50.806;8.776;2023-06-14T07:24:48;99665.91;;;17.17;48.88
78485;BME280;67773;50.806;8.776;2023-06-14T07:27:14;99675.34;;;17.22;49.33
78485;BME280;67773;50.806;8.776;2023-06-14T07:29:39;99655.31;;;17.26;48.62
78485;BME280;67773;50.806;8.776;2023-06-14T07:32:05;99664.00;;;17.41;47.68
78485;BME280;67773;50.806;8.776;2023-06-14T07:34:30;99653.88;;;17.34;48.38
78485;BME280;67773;50.806;8.776;2023-06-14T07:36:56;99661.94;;;17.45;48.50
78485;BME280;67773;50.806;8.776;2023-06-14T07:39:21;99665.59;;;17.55;47.38
78485;BME280;67773;50.806;8.776;2023-06-14T07:41:47;99665.72;;;17.76;47.76
78485;BME280;67773;50.806;8.776;2023-06-14T07:44:12;99652.53;;;17.84;46.65
78485;BME280;67773;50.806;8.776;2023-06-14T07:46:38;99660.81;;;17.81;47.18
78485;BME280;67773;50.806;8.776;2023-06-14T07:49:04;99663.03;;;17.87;47.60
78485;BME280;67773;50.806;8.776;2023-06-14T07:51:30;99663.03;;;17.87;46.83
78485;BME280;67773;50.806;8.776;2023-06-14T07:53:55;99653.78;;;18.12;47.81
78485;BME280;67773;50.806;8.776;2023-06-14T07:56:21;99656.72;;;18.20;47.33
78485;BME280;67773;50.806;8.776;2023-06-14T07:58:48;99661.19;;;18.31;46.60
78485;BME280;67773;50.806;8.776;2023-06-14T08:01:13;99656.91;;;18.60;46.24
78485;BME280;67773;50.806;8.776;2023-06-14T08:03:38;99655.53;;;18.98;44.02
78485;BME280;67773;50.806;8.776;2023-06-14T08:06:04;99664.25;;;18.90;44.86
78485;BME280;67773;50.806;8.776;2023-06-14T08:08:30;99650.41;;;18.74;45.59
78485;BME280;67773;50.806;8.776;2023-06-14T08:10:55;99651.72;;;18.80;45.67
78485;BME280;67773;50.806;8.776;2023-06-14T08:13:21;99665.31;;;18.78;45.89
78485;BME280;67773;50.806;8.776;2023-06-14T08:15:46;99655.78;;;18.74;44.96
78485;BME280;67773;50.806;8.776;2023-06-14T08:18:11;99659.00;;;18.68;45.30
78485;BME280;67773;50.806;8.776;2023-06-14T08:20:37;99662.22;;;18.83;45.09
78485;BME280;67773;50.806;8.776;2023-06-14T08:23:03;99656.97;;;18.81;45.85
78485;BME280;67773;50.806;8.776;2023-06-14T08:25:29;99662.31;;;18.60;45.25
78485;BME280;67773;50.806;8.776;2023-06-14T08:27:55;99669.09;;;18.75;44.88
78485;BME280;67773;50.806;8.776;2023-06-14T08:30:20;99671.91;;;18.74;44.27
78485;BME280;67773;50.806;8.776;2023-06-14T08:32:46;99661.91;;;18.97;43.19
78485;BME280;67773;50.806;8.776;2023-06-14T08:35:11;99668.13;;;19.18;43.64
78485;BME280;67773;50.806;8.776;2023-06-14T08:37:40;99668.38;;;19.15;43.67
78485;BME280;67773;50.806;8.776;2023-06-14T08:40:17;99662.81;;;19.38;43.41
78485;BME280;67773;50.806;8.776;2023-06-14T08:42:43;99655.56;;;19.59;43.10
78485;BME280;67773;50.806;8.776;2023-06-14T08:45:09;99657.13;;;19.92;42.32
78485;BME280;67773;50.806;8.776;2023-06-14T08:47:34;99667.66;;;20.14;41.47
78485;BME280;67773;50.806;8.776;2023-06-14T08:50:02;99652.06;;;20.37;41.14
78485;BME280;67773;50.806;8.776;2023-06-14T08:52:33;99650.13;;;20.59;42.43
78485;BME280;67773;50.806;8.776;2023-06-14T08:55:06;99663.97;;;21.12;41.57
78485;BME280;67773;50.806;8.776;2023-06-14T08:57:35;99666.78;;;21.20;40.97
78485;BME280;67773;50.806;8.776;2023-06-14T09:00:03;99672.81;;;20.95;38.96
78485;BME280;67773;50.806;8.776;2023-06-14T09:02:36;99659.06;;;20.79;41.72
78485;BME280;67773;50.806;8.776;2023-06-14T09:05:02;99668.56;;;20.83;40.11
78485;BME280;67773;50.806;8.776;2023-06-14T09:07:28;99667.56;;;20.84;39.52
78485;BME280;67773;50.806;8.776;2023-06-14T09:10:14;99675.09;;;20.90;39.97
78485;BME280;67773;50.806;8.776;2023-06-14T09:12:40;99675.72;;;21.40;38.15
78485;BME280;67773;50.806;8.776;2023-06-14T09:15:06;99673.47;;;21.73;37.18
78485;BME280;67773;50.806;8.776;2023-06-14T09:17:33;99657.78;;;21.76;37.91
78485;BME280;67773;50.806;8.776;2023-06-14T09:20:05;99671.13;;;21.78;37.46
78485;BME280;67773;50.806;8.776;2023-06-14T09:22:35;99669.97;;;21.90;38.98
78485;BME280;67773;50.806;8.776;2023-06-14T09:25:01;99665.75;;;22.05;37.58
78485;BME280;67773;50.806;8.776;2023-06-14T09:27:27;99666.63;;;21.96;36.37
78485;BME280;67773;50.806;8.776;2023-06-14T09:29:53;99671.28;;;22.13;36.92
78485;BME280;67773;50.806;8.776;2023-06-14T09:32:18;99667.13;;;22.37;37.41
78485;BME280;67773;50.806;8.776;2023-06-14T09:34:45;99659.88;;;22.55;36.99
78485;BME280;67773;50.806;8.776;2023-06-14T09:37:10;99670.06;;;22.97;34.67
78485;BME280;67773;50.806;8.776;2023-06-14T09:39:49;99672.94;;;22.95;33.51
78485;BME280;67773;50.806;8.776;2023-06-14T09:42:18;99675.72;;;23.29;36.00
78485;BME280;67773;50.806;8.776;2023-06-14T09:44:47;99669.13;;;23.32;36.68
78485;BME280;67773;50.806;8.776;2023-06-14T09:47:13;99660.66;;;26.53;30.15
78485;BME280;67773;50.806;8.776;2023-06-14T09:49:39;99654.50;;;29.01;25.17
78485;BME280;67773;50.806;8.776;2023-06-14T09:52:06;99658.28;;;29.91;24.93
78485;BME280;67773;50.806;8.776;2023-06-14T09:54:36;99657.44;;;30.45;22.73
78485;BME280;67773;50.806;8.776;2023-06-14T09:57:07;99648.72;;;27.81;28.64
78485;BME280;67773;50.806;8.776;2023-06-14T09:59:33;99656.22;;;27.20;32.14
78485;BME280;67773;50.806;8.776;2023-06-14T10:01:59;99655.31;;;27.87;27.56
78485;BME280;67773;50.806;8.776;2023-06-14T10:04:30;99647.66;;;29.40;24.95
78485;BME280;67773;50.806;8.776;2023-06-14T10:06:56;99649.84;;;31.86;21.78
78485;BME280;67773;50.806;8.776;2023-06-14T10:09:22;99650.22;;;28.92;25.12
78485;BME280;67773;50.806;8.776;2023-06-14T10:11:48;99658.06;;;28.81;24.29
78485;BME280;67773;50.806;8.776;2023-06-14T10:14:14;99638.13;;;33.12;20.26
78485;BME280;67773;50.806;8.776;2023-06-14T10:19:24;99643.97;;;29.54;22.53
78485;BME280;67773;50.806;8.776;2023-06-14T10:24:41;99637.03;;;30.54;23.82
78485;BME280;67773;50.806;8.776;2023-06-14T10:27:07;99629.13;;;33.66;21.87
78485;BME280;67773;50.806;8.776;2023-06-14T10:30:02;99621.19;;;33.95;21.79
78485;BME280;67773;50.806;8.776;2023-06-14T10:32:28;99626.44;;;36.43;16.74
78485;BME280;67773;50.806;8.776;2023-06-14T10:37:21;99628.28;;;36.83;15.66
78485;BME280;67773;50.806;8.776;2023-06-14T10:39:46;99636.66;;;34.86;17.04
78485;BME280;67773;50.806;8.776;2023-06-14T10:42:12;99640.69;;;35.37;20.13
78485;BME280;67773;50.806;8.776;2023-06-14T10:44:43;99638.19;;;35.23;16.38
78485;BME280;67773;50.806;8.776;2023-06-14T10:47:33;99641.13;;;36.89;19.46
78485;BME280;67773;50.806;8.776;2023-06-14T10:50:09;99639.72;;;39.38;15.18
78485;BME280;67773;50.806;8.776;2023-06-14T10:52:40;99631.66;;;38.99;15.96
78485;BME280;67773;50.806;8.776;2023-06-14T10:55:13;99629.06;;;35.58;17.94
78485;BME280;67773;50.806;8.776;2023-06-14T10:57:50;99648.09;;;31.98;22.26
78485;BME280;67773;50.806;8.776;2023-06-14T11:00:22;99646.91;;;30.62;25.62
78485;BME280;67773;50.806;8.776;2023-06-14T11:05:59;99615.31;;;36.55;19.69
78485;BME280;67773;50.806;8.776;2023-06-14T11:08:37;99626.47;;;33.35;19.72
78485;BME280;67773;50.806;8.776;2023-06-14T11:11:08;99633.75;;;33.29;19.92
78485;BME280;67773;50.806;8.776;2023-06-14T11:13:38;99632.00;;;34.44;17.11
78485;BME280;67773;50.806;8.776;2023-06-14T11:16:10;99635.88;;;34.37;17.41
78485;BME280;67773;50.806;8.776;2023-06-14T11:18:36;99635.59;;;31.31;21.74
78485;BME280;67773;50.806;8.776;2023-06-14T11:21:01;99630.41;;;30.15;23.74
78485;BME280;67773;50.806;8.776;2023-06-14T11:23:27;99629.88;;;32.55;20.76
78485;BME280;67773;50.806;8.776;2023-06-14T11:25:53;99626.81;;;32.70;21.79
78485;BME280;67773;50.806;8.776;2023-06-14T11:28:19;99628.00;;;30.67;24.84
78485;BME280;67773;50.806;8.776;2023-06-14T11:30:46;99625.81;;;30.36;23.12
78485;BME280;67773;50.806;8.776;2023-06-14T11:33:17;99636.84;;;31.15;22.27
78485;BME280;67773;50.806;8.776;2023-06-14T11:35:43;99629.75;;;34.53;18.88
78485;BME280;67773;50.806;8.776;2023-06-14T11:38:09;99639.69;;;32.00;21.27
78485;BME280;67773;50.806;8.776;2023-06-14T11:40:37;99625.88;;;34.24;20.74
78485;BME280;67773;50.806;8.776;2023-06-14T11:43:03;99628.81;;;35.48;19.95
78485;BME280;67773;50.806;8.776;2023-06-14T11:45:30;99616.69;;;35.49;16.07
78485;BME280;67773;50.806;8.776;2023-06-14T11:47:56;99622.53;;;34.40;19.51
78485;BME280;67773;50.806;8.776;2023-06-14T11:50:22;99613.03;;;31.29;21.88
78485;BME280;67773;50.806;8.776;2023-06-14T11:52:54;99627.59;;;31.29;24.49
78485;BME280;67773;50.806;8.776;2023-06-14T11:55:20;99620.84;;;34.39;18.56
78485;BME280;67773;50.806;8.776;2023-06-14T11:57:46;99629.41;;;35.03;21.90
78485;BME280;67773;50.806;8.776;2023-06-14T12:00:12;99626.28;;;34.58;19.24
78485;BME280;67773;50.806;8.776;2023-06-14T12:02:38;99635.03;;;33.26;20.02
78485;BME280;67773;50.806;8.776;2023-06-14T12:05:07;99619.00;;;34.75;19.31
78485;BME280;67773;50.806;8.776;2023-06-14T12:07:36;99615.69;;;37.26;15.48
78485;BME280;67773;50.806;8.776;2023-06-14T12:12:28;99620.50;;;33.81;21.58
78485;BME280;67773;50.806;8.776;2023-06-14T12:14:55;99625.34;;;36.04;18.03
78485;BME280;67773;50.806;8.776;2023-06-14T12:17:21;99613.00;;;36.81;18.03
78485;BME280;67773;50.806;8.776;2023-06-14T12:19:49;99617.97;;;33.79;19.94
78485;BME280;67773;50.806;8.776;2023-06-14T12:22:15;99612.84;;;30.64;24.75
78485;BME280;67773;50.806;8.776;2023-06-14T12:24:45;99613.63;;;33.28;20.03
78485;BME280;67773;50.806;8.776;2023-06-14T12:27:11;99617.44;;;31.43;22.87
78485;BME280;67773;50.806;8.776;2023-06-14T12:29:41;99618.13;;;30.86;22.58
78485;BME280;67773;50.806;8.776;2023-06-14T12:32:10;99607.22;;;29.36;22.54
78485;BME280;67773;50.806;8.776;2023-06-14T12:34:35;99615.53;;;32.78;21.09
78485;BME280;67773;50.806;8.776;2023-06-14T12:37:01;99621.22;;;34.96;17.61
78485;BME280;67773;50.806;8.776;2023-06-14T12:39:29;99607.97;;;34.63;20.23
78485;BME280;67773;50.806;8.776;2023-06-14T12:41:56;99612.41;;;33.68;20.45
78485;BME280;67773;50.806;8.776;2023-06-14T12:44:22;99608.78;;;36.61;14.72
78485;BME280;67773;50.806;8.776;2023-06-14T12:46:47;99611.22;;;36.29;18.81
78485;BME280;67773;50.806;8.776;2023-06-14T12:49:13;99609.97;;;38.37;14.13
78485;BME280;67773;50.806;8.776;2023-06-14T12:51:39;99605.78;;;38.88;12.99
78485;BME280;67773;50.806;8.776;2023-06-14T12:54:05;99609.47;;;36.11;17.56
78485;BME280;67773;50.806;8.776;2023-06-14T12:56:30;99613.63;;;32.85;20.15
78485;BME280;67773;50.806;8.776;2023-06-14T12:58:56;99604.09;;;34.94;17.10
78485;BME280;67773;50.806;8.776;2023-06-14T13:01:21;99604.78;;;36.12;15.51
78485;BME280;67773;50.806;8.776;2023-06-14T13:03:47;99589.91;;;35.61;16.85
78485;BME280;67773;50.806;8.776;2023-06-14T13:06:13;99605.03;;;33.62;17.85
78485;BME280;67773;50.806;8.776;2023-06-14T13:08:38;99622.53;;;30.67;25.36
78485;BME280;67773;50.806;8.776;2023-06-14T13:11:04;99628.34;;;28.71;26.92